Time;durP1;ratioP1;P1;durP2;ratioP2;P2;SDS_P1;SDS_P2;PMS_P1;PMS_P2;Temp;Humidity;BMP_temperature;BMP_pressure;BME280_temperature;BME280_humidity;BME280_pressure;Samples;Min_cycle;Max_cycle;Signal;HPM_P1;HPM_P2
2020/12/19 00:00:04;;;;;;;7.47;5.65;;;6.60;99.90;;;;;;5033100;28;20629;-77
2020/12/19 00:02:31;;;;;;;8.85;5.45;;;6.70;99.90;;;;;;5032914;28;20226;-77
2020/12/19 00:04:57;;;;;;;9.98;5.72;;;6.60;99.90;;;;;;5033143;28;20306;-77
2020/12/19 00:07:23;;;;;;;9.60;6.35;;;6.50;99.90;;;;;;5033291;28;20685;-76
2020/12/19 00:09:49;;;;;;;9.25;5.95;;;6.40;99.90;;;;;;5033082;28;20299;-75
2020/12/19 00:12:21;;;;;;;6.53;4.88;;;6.60;99.90;;;;;;5033112;28;20283;-76
2020/12/19 00:14:47;;;;;;;8.98;5.20;;;6.60;99.90;;;;;;5032682;28;20216;-75
2020/12/19 00:17:14;;;;;;;11.15;5.90;;;6.50;99.90;;;;;;5032489;28;20287;-76
2020/12/19 00:19:40;;;;;;;9.02;4.90;;;6.50;99.90;;;;;;5032749;28;20284;-75
2020/12/19 00:22:06;;;;;;;10.23;5.38;;;6.60;99.90;;;;;;5032818;28;20216;-76
2020/12/19 00:24:33;;;;;;;8.02;5.82;;;6.60;99.90;;;;;;5031445;28;20655;-75
2020/12/19 00:26:59;;;;;;;11.15;5.93;;;6.70;99.90;;;;;;5032730;28;20650;-76
2020/12/19 00:29:26;;;;;;;10.25;6.25;;;6.70;99.90;;;;;;5030307;28;20283;-76
2020/12/19 00:31:53;;;;;;;10.27;5.75;;;6.70;99.90;;;;;;5032701;28;20414;-76
2020/12/19 00:34:19;;;;;;;9.73;5.30;;;6.70;99.90;;;;;;5032453;28;20686;-77
2020/12/19 00:36:46;;;;;;;6.40;5.20;;;6.60;99.90;;;;;;5030089;28;20227;-75
2020/12/19 00:39:12;;;;;;;9.73;5.07;;;6.60;99.90;;;;;;5032804;28;20623;-76
2020/12/19 00:41:38;;;;;;;7.03;4.88;;;6.50;99.90;;;;;;5032392;28;20326;-76
2020/12/19 00:44:05;;;;;;;8.10;5.13;;;6.60;99.90;;;;;;5029830;28;20308;-76
2020/12/19 00:46:32;;;;;;;8.63;5.72;;;6.60;99.90;;;;;;5032367;28;20556;-76
2020/12/19 00:48:58;;;;;;;8.35;5.95;;;6.60;99.90;;;;;;5032725;28;20283;-76
2020/12/19 00:51:24;;;;;;;7.30;4.90;;;6.70;99.90;;;;;;5033219;28;20196;-75
2020/12/19 00:53:51;;;;;;;5.80;4.82;;;6.70;99.90;;;;;;5033812;28;20315;-75
2020/12/19 00:56:19;;;;;;;8.35;4.72;;;6.70;99.90;;;;;;5033711;28;20230;-75
2020/12/19 00:58:46;;;;;;;8.98;5.45;;;6.80;99.90;;;;;;5034146;28;20299;-71
2020/12/19 01:01:13;;;;;;;5.43;4.78;;;6.80;99.90;;;;;;5035164;28;20204;-72
2020/12/19 01:03:40;;;;;;;7.82;5.20;;;6.50;99.90;;;;;;5034989;28;20232;-72
2020/12/19 01:06:07;;;;;;;8.05;5.40;;;6.30;99.90;;;;;;5034942;28;20219;-71
2020/12/19 01:08:33;;;;;;;8.88;5.40;;;6.40;99.90;;;;;;5038764;28;20295;-72
2020/12/19 01:10:59;;;;;;;8.40;5.53;;;6.40;99.90;;;;;;5038535;28;20210;-72
2020/12/19 01:13:26;;;;;;;7.85;4.88;;;6.40;99.90;;;;;;5038605;28;20319;-71
2020/12/19 01:15:52;;;;;;;8.15;5.20;;;6.50;99.90;;;;;;5037710;28;20249;-72
2020/12/19 01:18:19;;;;;;;6.80;4.85;;;6.50;99.90;;;;;;5034165;28;20196;-76
2020/12/19 01:20:46;;;;;;;5.15;4.38;;;6.40;99.90;;;;;;5032263;28;20200;-76
2020/12/19 01:23:13;;;;;;;7.57;4.57;;;6.20;99.90;;;;;;5031925;28;20712;-76
2020/12/19 01:25:39;;;;;;;8.13;5.13;;;6.20;99.90;;;;;;5031826;28;20287;-76
2020/12/19 01:28:05;;;;;;;9.45;5.50;;;6.30;99.90;;;;;;5034066;28;20284;-78
2020/12/19 01:30:32;;;;;;;8.40;5.22;;;6.40;99.90;;;;;;5035193;28;20680;-77
2020/12/19 01:32:58;;;;;;;9.95;5.72;;;6.40;99.90;;;;;;5034432;28;20717;-78
2020/12/19 01:35:24;;;;;;;9.10;5.72;;;6.40;99.90;;;;;;5038707;28;20292;-77
2020/12/19 01:37:51;;;;;;;6.90;5.40;;;6.40;99.90;;;;;;5042609;28;20232;-77
2020/12/19 01:40:18;;;;;;;8.02;5.38;;;6.40;99.90;;;;;;5043034;28;20236;-78
2020/12/19 01:42:44;;;;;;;6.53;5.00;;;6.10;99.90;;;;;;5037165;28;20307;-76
2020/12/19 01:45:10;;;;;;;7.97;4.45;;;6.20;99.90;;;;;;5035506;28;20311;-75
2020/12/19 01:47:37;;;;;;;8.45;5.20;;;6.20;99.90;;;;;;5035798;28;20200;-76
2020/12/19 01:50:06;;;;;;;6.13;4.80;;;6.20;99.90;;;;;;5039363;28;20287;-78
2020/12/19 01:52:33;;;;;;;5.50;3.78;;;6.20;99.90;;;;;;5035724;28;20258;-76
2020/12/19 01:55:01;;;;;;;8.10;4.75;;;6.20;99.90;;;;;;5036235;28;20311;-77
2020/12/19 01:57:30;;;;;;;7.85;4.70;;;6.30;99.90;;;;;;5035935;28;20208;-77
2020/12/19 01:59:57;;;;;;;7.03;4.00;;;6.30;99.90;;;;;;5033705;28;20676;-77
2020/12/19 02:02:25;;;;;;;5.93;4.50;;;6.30;99.90;;;;;;5035534;28;20378;-77
2020/12/19 02:04:52;;;;;;;5.97;4.55;;;6.00;99.90;;;;;;5035293;28;20273;-76
2020/12/19 02:07:19;;;;;;;9.20;6.30;;;5.90;99.90;;;;;;5034917;28;20657;-77
2020/12/19 02:09:45;;;;;;;9.10;5.60;;;5.80;99.90;;;;;;5034920;28;20204;-77
2020/12/19 02:12:14;;;;;;;7.43;4.90;;;5.70;99.90;;;;;;5036539;28;20203;-76
2020/12/19 02:14:41;;;;;;;8.98;5.80;;;5.70;99.90;;;;;;5029349;28;20586;-76
2020/12/19 02:17:08;;;;;;;10.02;5.63;;;5.80;99.90;;;;;;5042163;28;20208;-76
2020/12/19 02:19:36;;;;;;;8.15;5.25;;;5.80;99.90;;;;;;5035258;28;20208;-76
2020/12/19 02:22:04;;;;;;;7.03;4.57;;;6.00;99.90;;;;;;5034819;28;20224;-76
2020/12/19 02:24:31;;;;;;;9.10;5.57;;;6.00;99.90;;;;;;5035272;28;20220;-76
2020/12/19 02:26:59;;;;;;;8.43;5.70;;;6.10;99.90;;;;;;5035387;28;20232;-76
2020/12/19 02:29:27;;;;;;;9.40;5.22;;;6.10;99.90;;;;;;5035018;28;20204;-75
2020/12/19 02:31:55;;;;;;;7.45;4.25;;;6.20;99.90;;;;;;5035109;28;20212;-75
2020/12/19 02:34:21;;;;;;;7.85;4.78;;;5.90;99.90;;;;;;5034730;28;20227;-75
2020/12/19 02:36:48;;;;;;;6.75;4.45;;;5.90;99.90;;;;;;5041163;28;20204;-77
2020/12/19 02:39:14;;;;;;;6.07;4.70;;;5.90;99.90;;;;;;5034957;28;20628;-76
2020/12/19 02:41:43;;;;;;;7.38;4.80;;;6.00;99.90;;;;;;5034869;28;20215;-75
2020/12/19 02:44:13;;;;;;;8.27;5.25;;;6.00;99.90;;;;;;5034671;28;20321;-75
2020/12/19 02:46:42;;;;;;;6.78;4.63;;;6.00;99.90;;;;;;5033285;28;20211;-78
2020/12/19 02:49:09;;;;;;;9.23;4.75;;;5.90;99.90;;;;;;5034370;28;20772;-76
2020/12/19 02:51:35;;;;;;;5.78;4.35;;;5.90;99.90;;;;;;5034992;28;20208;-74
2020/12/19 02:54:02;;;;;;;6.45;4.25;;;5.90;99.90;;;;;;5036352;28;20224;-78
2020/12/19 02:56:29;;;;;;;6.97;4.95;;;5.90;99.90;;;;;;5038658;28;20208;-74
2020/12/19 02:58:56;;;;;;;6.13;4.65;;;5.60;99.90;;;;;;5035627;28;20291;-74
2020/12/19 03:01:27;;;;;;;4.97;4.28;;;5.50;99.90;;;;;;5035592;28;20294;-73
2020/12/19 03:03:53;;;;;;;6.03;4.70;;;5.50;99.90;;;;;;5035272;28;20227;-75
2020/12/19 03:06:19;;;;;;;6.85;4.53;;;5.40;99.90;;;;;;5035226;28;20244;-74
2020/12/19 03:08:46;;;;;;;4.75;3.70;;;5.50;99.90;;;;;;5035723;28;20287;-74
2020/12/19 03:11:12;;;;;;;5.90;4.30;;;5.60;99.90;;;;;;5035395;28;20203;-74
2020/12/19 03:13:38;;;;;;;5.13;3.72;;;5.60;99.90;;;;;;5035365;28;20608;-73
2020/12/19 03:16:06;;;;;;;9.48;3.90;;;5.70;99.90;;;;;;5035268;28;20207;-73
2020/12/19 03:18:32;;;;;;;10.38;3.97;;;5.70;99.90;;;;;;5035392;28;20204;-74
2020/12/19 03:20:58;;;;;;;7.25;4.47;;;5.60;99.90;;;;;;5035336;28;20220;-74
2020/12/19 03:23:25;;;;;;;7.28;4.45;;;5.40;99.90;;;;;;5034937;28;20743;-74
2020/12/19 03:25:51;;;;;;;5.20;3.97;;;5.50;99.90;;;;;;5034826;28;20294;-74
2020/12/19 03:28:18;;;;;;;4.85;3.65;;;5.40;99.90;;;;;;5035084;28;20298;-73
2020/12/19 03:30:44;;;;;;;5.65;3.72;;;5.30;99.90;;;;;;5034806;28;20216;-74
2020/12/19 03:33:12;;;;;;;5.13;3.50;;;5.30;99.90;;;;;;5034885;28;20207;-74
2020/12/19 03:35:40;;;;;;;6.25;3.78;;;5.30;99.90;;;;;;5034643;28;20257;-74
2020/12/19 03:38:07;;;;;;;8.60;4.75;;;5.40;99.90;;;;;;5034934;28;20204;-74
2020/12/19 03:40:33;;;;;;;7.55;4.43;;;5.50;99.90;;;;;;5034790;28;20215;-74
2020/12/19 03:42:59;;;;;;;6.07;4.40;;;5.60;99.90;;;;;;5034766;28;20281;-74
2020/12/19 03:45:26;;;;;;;6.22;3.65;;;5.60;99.90;;;;;;5034548;28;20310;-74
2020/12/19 03:47:52;;;;;;;6.63;4.47;;;5.70;99.90;;;;;;5034531;28;20299;-74
2020/12/19 03:50:20;;;;;;;5.45;4.40;;;5.60;99.90;;;;;;5034711;28;20257;-74
2020/12/19 03:52:46;;;;;;;6.57;3.72;;;5.60;99.90;;;;;;5034518;28;20662;-74
2020/12/19 03:55:12;;;;;;;5.10;3.80;;;5.60;99.90;;;;;;5034442;28;20224;-74
2020/12/19 03:57:39;;;;;;;5.75;3.53;;;5.50;99.90;;;;;;5034860;28;20660;-74
2020/12/19 04:00:08;;;;;;;4.30;2.90;;;5.50;99.90;;;;;;5034401;28;20208;-74
2020/12/19 04:02:34;;;;;;;6.00;3.47;;;5.50;99.90;;;;;;5034384;28;20586;-73
2020/12/19 04:05:01;;;;;;;4.32;3.92;;;5.40;99.90;;;;;;5034291;28;20223;-73
2020/12/19 04:07:28;;;;;;;5.68;4.13;;;5.50;99.90;;;;;;5034236;28;20291;-74
2020/12/19 04:09:54;;;;;;;7.82;3.58;;;5.40;99.90;;;;;;5034394;28;20633;-74
2020/12/19 04:12:20;;;;;;;4.82;3.47;;;5.40;99.90;;;;;;5033972;28;20291;-73
2020/12/19 04:14:47;;;;;;;8.80;3.90;;;5.40;99.90;;;;;;5034094;28;20310;-74
2020/12/19 04:17:13;;;;;;;5.65;3.42;;;5.50;99.90;;;;;;5034059;28;20294;-74
2020/12/19 04:19:41;;;;;;;5.95;3.90;;;5.60;99.90;;;;;;5034474;28;20290;-74
2020/12/19 04:22:07;;;;;;;4.75;3.30;;;5.60;99.90;;;;;;5034367;28;20224;-74
2020/12/19 04:24:34;;;;;;;4.63;3.35;;;5.60;99.90;;;;;;5033825;28;20234;-74
2020/12/19 04:27:01;;;;;;;5.60;3.80;;;5.60;99.90;;;;;;5034031;28;20632;-74
2020/12/19 04:29:28;;;;;;;7.00;3.50;;;5.70;99.90;;;;;;5034048;28;20208;-73
2020/12/19 04:31:55;;;;;;;4.70;3.35;;;5.70;99.90;;;;;;5033694;28;20667;-73
2020/12/19 04:34:21;;;;;;;5.05;3.72;;;5.70;99.90;;;;;;5034151;28;20231;-74
2020/12/19 04:36:48;;;;;;;4.20;2.80;;;5.60;99.90;;;;;;5033956;28;20210;-74
2020/12/19 04:39:14;;;;;;;6.07;2.92;;;5.50;99.90;;;;;;5033809;28;20236;-74
2020/12/19 04:41:41;;;;;;;4.78;3.50;;;5.40;99.90;;;;;;5033676;28;20742;-74
2020/12/19 04:44:08;;;;;;;4.22;3.63;;;5.30;99.90;;;;;;5033743;28;20281;-73
2020/12/19 04:46:40;;;;;;;7.60;4.30;;;5.50;99.90;;;;;;5033629;28;20210;-73
2020/12/19 04:49:06;;;;;;;5.13;3.40;;;5.60;99.90;;;;;;5033774;28;20203;-73
2020/12/19 04:51:34;;;;;;;6.63;3.55;;;5.60;99.90;;;;;;5033952;28;20211;-73
2020/12/19 04:54:01;;;;;;;6.25;3.28;;;5.70;99.90;;;;;;5033522;28;20228;-74
2020/12/19 04:56:29;;;;;;;4.97;3.33;;;5.70;99.90;;;;;;5033516;28;20211;-74
2020/12/19 04:58:58;;;;;;;3.92;2.85;;;5.70;99.90;;;;;;5033662;28;20208;-73
2020/12/19 05:01:24;;;;;;;3.72;3.00;;;5.70;99.90;;;;;;5033644;28;20597;-74
2020/12/19 05:03:52;;;;;;;6.05;3.78;;;5.80;99.90;;;;;;5033473;28;20246;-74
2020/12/19 05:06:18;;;;;;;5.00;3.47;;;5.60;99.90;;;;;;5033501;28;20204;-74
2020/12/19 05:08:45;;;;;;;4.57;3.88;;;5.50;99.90;;;;;;5033772;28;20208;-73
2020/12/19 05:11:13;;;;;;;4.50;2.97;;;5.30;99.90;;;;;;5039491;28;20773;-73
2020/12/19 05:13:41;;;;;;;6.03;3.20;;;5.00;99.90;;;;;;5040081;28;20227;-74
2020/12/19 05:16:10;;;;;;;4.47;3.08;;;5.10;99.90;;;;;;5039963;28;20200;-74
2020/12/19 05:18:37;;;;;;;6.13;4.28;;;5.20;99.90;;;;;;5040100;28;20613;-74
2020/12/19 05:21:05;;;;;;;5.55;3.72;;;5.30;99.90;;;;;;5039979;28;20299;-74
2020/12/19 05:23:33;;;;;;;5.65;3.95;;;5.30;99.90;;;;;;5039851;28;20242;-74
2020/12/19 05:25:59;;;;;;;5.70;3.50;;;5.50;99.90;;;;;;5039888;28;20204;-73
2020/12/19 05:28:25;;;;;;;5.45;3.67;;;5.50;99.90;;;;;;5040049;28;20345;-74
2020/12/19 05:30:52;;;;;;;3.67;3.00;;;5.50;99.90;;;;;;5039842;28;20277;-74
2020/12/19 05:33:20;;;;;;;4.18;3.00;;;5.50;99.90;;;;;;5039861;28;20287;-74
2020/12/19 05:35:47;;;;;;;7.00;3.53;;;5.50;99.90;;;;;;5039544;28;20250;-74
2020/12/19 05:38:14;;;;;;;6.60;3.63;;;5.50;99.90;;;;;;5039908;28;20342;-74
2020/12/19 05:40:40;;;;;;;8.98;3.15;;;5.50;99.90;;;;;;5039894;28;20203;-74
2020/12/19 05:43:07;;;;;;;6.60;3.50;;;5.50;99.90;;;;;;5039535;28;20224;-73
2020/12/19 05:45:33;;;;;;;5.80;3.67;;;5.20;99.90;;;;;;5039752;28;20578;-74
2020/12/19 05:48:00;;;;;;;5.10;3.75;;;5.20;99.90;;;;;;5039798;28;20210;-74
2020/12/19 05:50:27;;;;;;;5.25;3.20;;;5.30;99.90;;;;;;5039518;28;20299;-74
2020/12/19 05:52:55;;;;;;;4.20;3.13;;;5.10;99.90;;;;;;5039714;28;20200;-74
2020/12/19 05:55:21;;;;;;;5.07;3.10;;;5.20;99.90;;;;;;5039639;28;20581;-74
2020/12/19 05:57:48;;;;;;;4.78;3.22;;;5.30;99.90;;;;;;5039689;28;20204;-74
2020/12/19 06:00:16;;;;;;;6.55;3.70;;;5.40;99.90;;;;;;5039941;28;20208;-74
2020/12/19 06:02:43;;;;;;;5.28;3.67;;;5.40;99.90;;;;;;5039512;28;20230;-74
2020/12/19 06:05:11;;;;;;;4.97;3.47;;;5.50;99.90;;;;;;5039384;28;20220;-74
2020/12/19 06:07:40;;;;;;;6.57;3.45;;;5.60;99.90;;;;;;5039403;28;20732;-74
2020/12/19 06:10:08;;;;;;;6.13;3.95;;;5.60;99.90;;;;;;5039606;28;20200;-74
2020/12/19 06:12:47;;;;;;;5.68;3.85;;;5.60;99.90;;;;;;5039566;28;20246;-74
2020/12/19 06:15:22;;;;;;;6.15;3.55;;;5.60;99.90;;;;;;5039202;28;20231;-74
2020/12/19 06:17:51;;;;;;;3.90;2.85;;;5.60;99.90;;;;;;5039362;28;20229;-73
2020/12/19 06:20:18;;;;;;;6.45;3.13;;;5.60;99.90;;;;;;5039045;28;20203;-74
2020/12/19 06:22:45;;;;;;;5.55;3.67;;;5.30;99.90;;;;;;5035099;28;20220;-74
2020/12/19 06:25:12;;;;;;;5.40;3.25;;;5.30;99.90;;;;;;5035870;28;20220;-73
2020/12/19 06:27:40;;;;;;;6.07;4.00;;;5.30;99.90;;;;;;5036440;28;20637;-74
2020/12/19 06:30:07;;;;;;;6.35;3.80;;;5.30;99.90;;;;;;5036059;28;20200;-74
2020/12/19 06:32:34;;;;;;;5.45;3.42;;;5.30;99.90;;;;;;5036067;28;20666;-74
2020/12/19 06:35:03;;;;;;;5.80;3.33;;;5.30;99.90;;;;;;5036276;28;20228;-74
2020/12/19 06:37:30;;;;;;;5.53;3.15;;;5.20;99.90;;;;;;5036112;28;20200;-74
2020/12/19 06:40:16;;;;;;;7.68;4.03;;;5.30;99.90;;;;;;5036055;28;20214;-74
2020/12/19 06:42:44;;;;;;;3.55;3.22;;;5.20;99.90;;;;;;5036017;28;20230;-74
2020/12/19 06:45:23;;;;;;;6.90;3.85;;;5.10;99.90;;;;;;5035832;28;20314;-74
2020/12/19 06:47:50;;;;;;;4.85;3.60;;;5.10;99.90;;;;;;5035985;28;20204;-74
2020/12/19 06:50:16;;;;;;;6.15;3.92;;;5.10;99.90;;;;;;5035906;28;20273;-74
2020/12/19 06:52:53;;;;;;;5.45;3.83;;;5.30;99.90;;;;;;5035847;28;20287;-74
2020/12/19 06:55:22;;;;;;;5.20;3.45;;;5.30;99.90;;;;;;5035644;28;20231;-74
2020/12/19 06:57:52;;;;;;;7.60;3.28;;;5.30;99.90;;;;;;5036275;28;20692;-74
2020/12/19 07:00:20;;;;;;;5.72;3.20;;;5.40;99.90;;;;;;5035580;28;20208;-74
2020/12/19 07:02:51;;;;;;;7.97;4.32;;;5.40;99.90;;;;;;5035592;28;20604;-74
2020/12/19 07:05:23;;;;;;;4.63;3.17;;;5.40;99.90;;;;;;5035288;28;20220;-74
2020/12/19 07:07:49;;;;;;;5.18;3.53;;;5.40;99.90;;;;;;5035582;28;20570;-74
2020/12/19 07:10:31;;;;;;;4.43;3.53;;;5.20;99.90;;;;;;5035433;28;20696;-74
2020/12/19 07:12:58;;;;;;;5.03;3.55;;;5.20;99.90;;;;;;5035389;28;20669;-73
2020/12/19 07:15:41;;;;;;;5.20;3.50;;;5.20;99.90;;;;;;5035268;28;20230;-74
2020/12/19 07:18:24;;;;;;;5.50;4.03;;;5.30;99.90;;;;;;5035658;28;20214;-74
2020/12/19 07:20:57;;;;;;;5.32;3.72;;;5.30;99.90;;;;;;5035413;28;20567;-73
2020/12/19 07:23:23;;;;;;;6.30;3.60;;;5.40;99.90;;;;;;5034985;28;20224;-74
2020/12/19 07:25:50;;;;;;;5.60;3.35;;;5.40;99.90;;;;;;5034838;28;20670;-74
2020/12/19 07:28:17;;;;;;;6.10;3.83;;;5.40;99.90;;;;;;5035226;28;20204;-74
2020/12/19 07:30:44;;;;;;;9.38;3.90;;;5.40;99.90;;;;;;5035001;28;20216;-74
2020/12/19 07:33:10;;;;;;;8.13;4.35;;;5.30;99.90;;;;;;5034553;28;20566;-74
2020/12/19 07:35:37;;;;;;;4.13;3.72;;;5.00;99.90;;;;;;5034985;28;20298;-74
2020/12/19 07:38:04;;;;;;;6.03;4.32;;;5.00;99.90;;;;;;5035059;28;20662;-74
2020/12/19 07:40:30;;;;;;;5.80;3.78;;;5.00;99.90;;;;;;5034860;28;20250;-74
2020/12/19 07:42:59;;;;;;;4.55;3.40;;;5.10;99.90;;;;;;5035043;28;20230;-74
2020/12/19 07:45:27;;;;;;;9.25;4.30;;;5.10;99.90;;;;;;5034557;28;20238;-74
2020/12/19 07:47:53;;;;;;;9.90;4.55;;;5.10;99.90;;;;;;5034663;28;20211;-74
2020/12/19 07:50:23;;;;;;;8.23;4.80;;;5.20;99.90;;;;;;5034783;28;20210;-74
2020/12/19 07:52:59;;;;;;;6.88;4.45;;;5.30;99.90;;;;;;5034763;28;20196;-74
2020/12/19 07:55:25;;;;;;;8.10;4.35;;;5.40;99.90;;;;;;5034208;28;20224;-74
2020/12/19 07:57:53;;;;;;;7.55;5.10;;;5.40;99.90;;;;;;5034634;28;20298;-74
2020/12/19 08:00:20;;;;;;;8.40;5.93;;;5.50;99.90;;;;;;5034461;28;20208;-74
2020/12/19 08:02:47;;;;;;;8.48;5.47;;;5.40;99.90;;;;;;5034433;28;20228;-73
2020/12/19 08:05:14;;;;;;;7.30;4.70;;;5.10;99.90;;;;;;5034361;28;20567;-74
2020/12/19 08:07:40;;;;;;;10.23;4.97;;;5.10;99.90;;;;;;5034509;28;20206;-74
2020/12/19 08:10:08;;;;;;;8.32;5.18;;;5.10;99.90;;;;;;5034511;28;20536;-73
2020/12/19 08:12:37;;;;;;;8.73;4.78;;;5.20;99.90;;;;;;5034351;28;20206;-74
2020/12/19 08:15:06;;;;;;;8.55;5.20;;;5.30;99.90;;;;;;5034368;28;20230;-74
2020/12/19 08:17:34;;;;;;;8.77;5.70;;;5.30;99.90;;;;;;5034450;28;20306;-74
2020/12/19 08:20:03;;;;;;;9.55;5.68;;;5.30;99.90;;;;;;5034225;28;20206;-74
2020/12/19 08:22:30;;;;;;;8.35;5.00;;;5.30;99.90;;;;;;5034068;28;20230;-74
2020/12/19 08:24:57;;;;;;;8.90;6.25;;;5.40;99.90;;;;;;5034003;28;20633;-73
2020/12/19 08:27:36;;;;;;;9.48;6.80;;;5.40;99.90;;;;;;5034103;28;20207;-74
2020/12/19 08:30:09;;;;;;;9.90;5.15;;;5.40;99.90;;;;;;5033815;28;20681;-73
2020/12/19 08:32:36;;;;;;;8.48;6.03;;;5.40;99.90;;;;;;5034228;28;20257;-73
2020/12/19 08:35:04;;;;;;;7.63;5.47;;;5.50;99.90;;;;;;5033489;28;20253;-74
2020/12/19 08:37:31;;;;;;;10.60;6.15;;;5.50;99.90;;;;;;5033714;28;20290;-74
2020/12/19 08:40:12;;;;;;;9.57;5.60;;;5.50;99.90;;;;;;5033700;28;20666;-73
2020/12/19 08:42:40;;;;;;;7.75;5.15;;;5.50;99.90;;;;;;5033720;28;20694;-73
2020/12/19 08:45:14;;;;;;;8.45;5.15;;;5.50;99.90;;;;;;5032735;28;20228;-74
2020/12/19 08:47:41;;;;;;;11.27;6.55;;;5.50;99.90;;;;;;5033914;28;20216;-74
2020/12/19 08:50:09;;;;;;;9.25;6.15;;;5.60;99.90;;;;;;5033778;28;20208;-73
2020/12/19 08:52:36;;;;;;;8.38;5.63;;;5.60;99.90;;;;;;5033713;28;20242;-74
2020/12/19 08:55:02;;;;;;;10.52;7.00;;;5.70;99.90;;;;;;5033391;28;20224;-74
2020/12/19 08:57:31;;;;;;;10.07;6.55;;;5.70;99.90;;;;;;5033687;28;20206;-74
2020/12/19 09:00:09;;;;;;;6.68;5.45;;;5.70;99.90;;;;;;5033611;28;20552;-74
2020/12/19 09:02:38;;;;;;;10.82;6.78;;;5.70;99.90;;;;;;5033587;28;20230;-73
2020/12/19 09:05:05;;;;;;;9.25;6.50;;;5.70;99.90;;;;;;5033411;28;20227;-73
2020/12/19 09:07:32;;;;;;;12.77;6.50;;;5.60;99.90;;;;;;5033584;28;20582;-73
2020/12/19 09:09:58;;;;;;;9.95;6.90;;;5.60;99.90;;;;;;5033552;28;20269;-73
2020/12/19 09:12:25;;;;;;;10.25;6.90;;;5.70;99.90;;;;;;5033475;28;20302;-74
2020/12/19 09:14:51;;;;;;;8.80;7.10;;;5.70;99.90;;;;;;5033309;28;20223;-74
2020/12/19 09:17:32;;;;;;;9.70;6.55;;;5.70;99.90;;;;;;5033492;28;20311;-74
2020/12/19 09:20:05;;;;;;;11.70;6.78;;;5.60;99.90;;;;;;5031898;28;20220;-74
2020/12/19 09:22:33;;;;;;;11.30;7.65;;;5.60;99.90;;;;;;5033349;28;20227;-74
2020/12/19 09:24:59;;;;;;;12.80;7.90;;;5.60;99.90;;;;;;5033364;28;20227;-74
2020/12/19 09:27:25;;;;;;;15.15;7.95;;;5.40;99.90;;;;;;5033372;28;20305;-74
2020/12/19 09:29:52;;;;;;;10.75;7.70;;;5.40;99.90;;;;;;5033169;28;20210;-74
2020/12/19 09:32:18;;;;;;;11.68;8.00;;;5.50;99.90;;;;;;5033101;28;20302;-74
2020/12/19 09:34:44;;;;;;;14.48;8.02;;;5.70;99.90;;;;;;5032811;28;20220;-74
2020/12/19 09:37:11;;;;;;;16.45;8.73;;;5.80;99.90;;;;;;5033382;28;20296;-74
2020/12/19 09:39:38;;;;;;;14.23;8.20;;;5.90;99.90;;;;;;5033038;28;20635;-74
2020/12/19 09:42:04;;;;;;;11.18;8.60;;;6.00;99.90;;;;;;5033269;28;20635;-73
2020/12/19 09:44:30;;;;;;;14.18;8.80;;;6.00;99.90;;;;;;5032715;28;20315;-74
2020/12/19 09:46:57;;;;;;;11.75;8.10;;;6.00;99.90;;;;;;5033221;28;20291;-73
2020/12/19 09:49:23;;;;;;;15.35;8.93;;;6.10;99.90;;;;;;5033067;28;20729;-74
2020/12/19 09:51:49;;;;;;;16.92;9.68;;;6.20;99.90;;;;;;5033149;28;20306;-73
2020/12/19 09:54:15;;;;;;;12.32;8.85;;;6.30;99.90;;;;;;5032796;28;20327;-74
2020/12/19 09:56:43;;;;;;;12.93;8.80;;;6.40;99.90;;;;;;5035338;28;20290;-74
2020/12/19 09:59:09;;;;;;;13.35;8.65;;;6.50;99.90;;;;;;5036840;28;20299;-74
2020/12/19 10:01:35;;;;;;;13.82;9.43;;;6.40;99.90;;;;;;5036677;28;20291;-74
2020/12/19 10:04:02;;;;;;;12.93;8.48;;;6.40;99.90;;;;;;5036548;28;20250;-74
2020/12/19 10:06:28;;;;;;;12.05;8.80;;;6.50;99.90;;;;;;5036607;28;20631;-74
2020/12/19 10:08:54;;;;;;;11.25;8.07;;;6.60;99.90;;;;;;5036683;28;20201;-73
2020/12/19 10:11:20;;;;;;;12.98;7.95;;;6.60;99.90;;;;;;5036430;28;20742;-74
2020/12/19 10:13:48;;;;;;;14.73;8.80;;;6.70;99.90;;;;;;5036538;28;20590;-74
2020/12/19 10:16:14;;;;;;;13.82;9.10;;;6.70;99.90;;;;;;5036685;28;20299;-74
2020/12/19 10:18:40;;;;;;;12.95;8.40;;;6.80;99.90;;;;;;5036482;28;20223;-74
2020/12/19 10:21:07;;;;;;;15.93;8.00;;;6.80;99.90;;;;;;5036444;28;20239;-74
2020/12/19 10:23:34;;;;;;;11.35;8.38;;;6.90;99.90;;;;;;5036218;28;20640;-74
2020/12/19 10:26:00;;;;;;;13.32;8.00;;;7.00;99.90;;;;;;5036035;28;20679;-74
2020/12/19 10:28:27;;;;;;;16.92;9.10;;;7.00;99.90;;;;;;5036351;28;20200;-74
2020/12/19 10:30:54;;;;;;;13.10;8.90;;;7.10;99.90;;;;;;5036057;28;20688;-74
2020/12/19 10:33:20;;;;;;;15.10;9.30;;;7.10;99.90;;;;;;5036097;28;20658;-74
2020/12/19 10:35:47;;;;;;;14.38;8.15;;;7.10;99.90;;;;;;5036041;28;20405;-74
2020/12/19 10:38:14;;;;;;;16.80;8.63;;;7.00;99.90;;;;;;5036158;28;20208;-74
2020/12/19 10:40:40;;;;;;;10.40;8.00;;;7.00;99.90;;;;;;5036128;28;20208;-74
2020/12/19 10:43:06;;;;;;;12.85;8.45;;;6.90;99.90;;;;;;5035880;28;20314;-74
2020/12/19 10:45:33;;;;;;;13.90;9.55;;;7.00;99.90;;;;;;5035559;28;20377;-74
2020/12/19 10:48:00;;;;;;;14.52;8.60;;;7.00;99.90;;;;;;5035972;28;20753;-74
2020/12/19 10:50:26;;;;;;;15.95;7.78;;;7.10;99.90;;;;;;5035893;28;20295;-74
2020/12/19 10:52:52;;;;;;;14.68;9.10;;;7.20;99.90;;;;;;5035689;28;20673;-74
2020/12/19 10:55:19;;;;;;;14.80;8.77;;;7.30;99.90;;;;;;5035675;28;20311;-73
2020/12/19 10:57:45;;;;;;;15.05;8.40;;;7.30;99.90;;;;;;5035688;28;20204;-74
2020/12/19 11:00:11;;;;;;;13.65;9.95;;;7.40;99.90;;;;;;5035793;28;20207;-74
2020/12/19 11:02:38;;;;;;;13.60;9.82;;;7.40;99.90;;;;;;5035591;28;20214;-74
2020/12/19 11:05:05;;;;;;;14.43;8.95;;;7.60;99.90;;;;;;5035592;28;20310;-73
2020/12/19 11:07:31;;;;;;;14.93;9.80;;;7.60;99.90;;;;;;5034884;28;20723;-72
2020/12/19 11:09:57;;;;;;;17.40;9.50;;;7.70;99.90;;;;;;5035476;28;20208;-72
2020/12/19 11:12:24;;;;;;;14.55;9.48;;;7.80;99.90;;;;;;5035653;28;20307;-71
2020/12/19 11:14:50;;;;;;;15.63;9.52;;;7.90;99.90;;;;;;5035267;28;20313;-73
2020/12/19 11:17:16;;;;;;;16.27;9.27;;;7.90;99.90;;;;;;5035735;28;20207;-73
2020/12/19 11:19:43;;;;;;;15.32;9.20;;;8.00;99.90;;;;;;5035584;28;20639;-73
2020/12/19 11:22:10;;;;;;;13.25;9.15;;;8.10;99.90;;;;;;5035406;28;20287;-73
2020/12/19 11:24:36;;;;;;;15.32;8.85;;;8.20;99.90;;;;;;5035228;28;20319;-73
2020/12/19 11:27:02;;;;;;;16.77;9.85;;;8.20;99.90;;;;;;5035154;28;20211;-73
2020/12/19 11:29:29;;;;;;;26.65;10.20;;;8.20;99.90;;;;;;5035263;28;20204;-72
2020/12/19 11:31:55;;;;;;;14.70;9.10;;;8.10;99.90;;;;;;5035316;28;20643;-73
2020/12/19 11:34:22;;;;;;;23.83;10.57;;;8.20;99.90;;;;;;5035290;28;20573;-73
2020/12/19 11:36:49;;;;;;;15.23;9.82;;;8.30;99.90;;;;;;5035092;28;20206;-72
2020/12/19 11:39:16;;;;;;;14.73;9.35;;;8.30;99.90;;;;;;5035112;28;20204;-73
2020/12/19 11:41:43;;;;;;;14.80;9.20;;;8.30;99.90;;;;;;5035132;28;20291;-71
2020/12/19 11:44:10;;;;;;;19.38;10.52;;;8.40;99.90;;;;;;5035156;28;20236;-72
2020/12/19 11:46:37;;;;;;;11.88;9.13;;;8.40;99.90;;;;;;5034673;28;20204;-71
2020/12/19 11:49:03;;;;;;;14.23;10.20;;;8.50;99.90;;;;;;5034934;28;20208;-71
2020/12/19 11:51:31;;;;;;;14.60;8.57;;;8.50;99.90;;;;;;5034932;28;20204;-71
2020/12/19 11:53:58;;;;;;;15.48;9.50;;;8.60;99.90;;;;;;5034761;28;20702;-71
2020/12/19 11:56:25;;;;;;;15.80;9.80;;;8.70;99.90;;;;;;5035095;28;20250;-71
2020/12/19 11:58:52;;;;;;;15.05;9.43;;;8.80;99.90;;;;;;5035341;28;20204;-71
2020/12/19 12:01:18;;;;;;;14.82;10.18;;;8.90;99.90;;;;;;5034506;28;20200;-72
2020/12/19 12:03:44;;;;;;;15.13;9.57;;;9.00;99.90;;;;;;5034235;28;20228;-71
2020/12/19 12:06:10;;;;;;;14.40;10.40;;;9.10;99.90;;;;;;5034952;28;20204;-74
2020/12/19 12:08:40;;;;;;;14.55;10.50;;;9.30;99.90;;;;;;5034860;28;20350;-76
2020/12/19 12:11:07;;;;;;;15.77;10.85;;;9.50;99.90;;;;;;5034843;28;20215;-76
2020/12/19 12:13:34;;;;;;;15.15;10.48;;;9.70;99.90;;;;;;5035479;28;20224;-78
2020/12/19 12:16:00;;;;;;;13.80;10.40;;;9.90;99.90;;;;;;5036738;28;20242;-78
2020/12/19 12:18:27;;;;;;;14.82;10.73;;;10.10;99.90;;;;;;5034889;28;20264;-78
2020/12/19 12:20:53;;;;;;;14.32;9.90;;;10.10;99.90;;;;;;5035101;28;20204;-77
2020/12/19 12:23:19;;;;;;;12.98;9.90;;;10.20;99.90;;;;;;5035526;28;20217;-79
2020/12/19 12:25:46;;;;;;;15.63;9.45;;;10.10;99.90;;;;;;5036051;28;20283;-78
2020/12/19 12:28:12;;;;;;;13.85;9.40;;;10.00;99.90;;;;;;5039200;28;20219;-80
2020/12/19 12:30:39;;;;;;;14.82;10.10;;;10.00;99.90;;;;;;5038606;28;20212;-78
2020/12/19 12:33:05;;;;;;;15.50;9.88;;;9.90;99.90;;;;;;5035435;28;20291;-77
2020/12/19 12:35:32;;;;;;;12.25;9.23;;;9.80;99.90;;;;;;5033889;28;20564;-76
2020/12/19 12:37:58;;;;;;;15.70;10.07;;;9.70;99.90;;;;;;5033144;28;20620;-77
2020/12/19 12:40:24;;;;;;;15.15;10.13;;;9.60;99.90;;;;;;5035133;28;20207;-78
2020/12/19 12:42:51;;;;;;;14.45;10.05;;;9.50;99.90;;;;;;5034565;28;20315;-76
2020/12/19 12:45:17;;;;;;;15.20;11.00;;;9.40;99.90;;;;;;5032652;28;20223;-77
2020/12/19 12:47:44;;;;;;;16.67;10.82;;;9.50;99.90;;;;;;5031590;28;20291;-76
2020/12/19 12:50:10;;;;;;;16.40;11.40;;;9.70;99.90;;;;;;5033151;28;20202;-77
2020/12/19 12:52:37;;;;;;;15.32;11.68;;;9.80;99.90;;;;;;5034825;28;20710;-77